Time;durP1;ratioP1;P1;durP2;ratioP2;P2;SDS_P1;SDS_P2;PMS_P1;PMS_P2;Temp;Humidity;BMP_temperature;BMP_pressure;BME280_temperature;BME280_humidity;BME280_pressure;Samples;Min_cycle;Max_cycle;Signal;HPM_P1;HPM_P2
2021/12/05 00:22:36;;;;;;;19.58;5.38;;;;;;;7.44;65.93;99663.88;5227551;28;20408;-42
2021/12/05 00:25:13;;;;;;;23.77;5.80;;;;;;;7.42;66.13;99660.56;5227507;28;20439;-42
2021/12/05 00:27:49;;;;;;;16.58;4.43;;;;;;;7.44;66.00;99657.81;5226503;28;20451;-42
2021/12/05 00:30:48;;;;;;;19.10;4.60;;;;;;;7.46;65.90;99655.81;5225622;28;20483;-43
2021/12/05 00:33:41;;;;;;;18.83;5.28;;;;;;;7.44;66.17;99652.56;5224006;28;20411;-44
2021/12/05 00:39:47;;;;;;;14.23;4.17;;;;;;;7.39;66.04;99656.47;5231626;27;2086040;-42
2021/12/05 00:45:41;;;;;;;19.73;4.75;;;;;;;7.35;66.30;99659.56;5267764;27;20907;-43
2021/12/05 00:48:43;;;;;;;19.25;5.70;;;;;;;7.35;66.22;99655.13;5295368;27;20790;-44
2021/12/05 01:03:01;;;;;;;12.80;4.35;;;;;;;7.12;66.41;99648.78;5284308;27;20484;-42
2021/12/05 01:11:31;;;;;;;9.80;3.25;;;;;;;6.97;66.63;99645.94;5300728;27;20394;-43
2021/12/05 01:14:21;;;;;;;11.43;4.38;;;;;;;6.87;66.74;99646.03;5301386;27;20471;-44
2021/12/05 01:16:54;;;;;;;9.48;4.45;;;;;;;6.92;66.66;99654.25;5298253;27;24905;-45
2021/12/05 01:19:29;;;;;;;6.72;3.97;;;;;;;6.87;66.72;99658.31;5300138;27;20484;-43
2021/12/05 01:22:10;;;;;;;10.50;5.22;;;;;;;6.81;66.69;99659.75;5297925;27;20406;-44
2021/12/05 01:24:54;;;;;;;7.50;4.47;;;;;;;6.75;66.93;99657.78;5298951;27;20410;-43
2021/12/05 01:27:37;;;;;;;5.97;4.28;;;;;;;6.75;66.79;99652.53;5295766;27;20757;-42
2021/12/05 01:30:23;;;;;;;8.25;4.43;;;;;;;6.73;66.77;99651.03;5297654;27;20674;-42
2021/12/05 01:33:03;;;;;;;7.13;4.18;;;;;;;6.75;66.41;99656.94;5292656;27;20394;-43
2021/12/05 01:35:51;;;;;;;7.75;4.10;;;;;;;6.76;66.67;99658.59;5293754;27;20477;-45
2021/12/05 01:38:38;;;;;;;8.32;4.35;;;;;;;6.76;66.77;99655.97;5301130;27;20417;-41
2021/12/05 01:41:42;;;;;;;7.65;5.00;;;;;;;6.73;66.77;99657.09;5296834;27;20413;-42
2021/12/05 01:44:37;;;;;;;12.77;5.45;;;;;;;6.73;66.85;99658.91;5290184;27;20422;-43
2021/12/05 01:53:25;;;;;;;14.07;7.78;;;;;;;6.63;66.93;99651.13;5250267;27;20770;-42
2021/12/05 01:59:20;;;;;;;11.75;7.03;;;;;;;6.62;66.83;99671.28;5202375;28;20968;-41
2021/12/05 02:02:27;;;;;;;15.05;7.35;;;;;;;6.58;66.93;99659.44;5198473;28;20442;-43
2021/12/05 02:08:28;;;;;;;13.95;6.80;;;;;;;6.59;66.45;99660.28;5281671;27;20392;-42
2021/12/05 02:11:16;;;;;;;15.57;7.53;;;;;;;6.59;66.78;99657.66;5285660;27;20393;-42
2021/12/05 02:31:37;;;;;;;21.60;8.80;;;;;;;6.50;66.93;99645.44;5287146;27;20757;-43
2021/12/05 02:34:21;;;;;;;17.08;8.30;;;;;;;6.48;67.00;99650.88;5280592;27;20816;-43
2021/12/05 02:37:13;;;;;;;19.63;8.52;;;;;;;6.51;67.06;99644.50;5285587;27;20503;-43
2021/12/05 02:40:08;;;;;;;21.07;8.60;;;;;;;6.56;66.89;99650.91;5283860;27;20448;-43
2021/12/05 02:42:48;;;;;;;16.80;7.85;;;;;;;6.53;66.96;99650.38;5279762;27;20897;-42
2021/12/05 02:45:21;;;;;;;16.58;8.65;;;;;;;6.53;66.71;99651.22;5280927;27;20422;-43
2021/12/05 02:47:54;;;;;;;17.15;7.10;;;;;;;6.50;67.01;99648.06;5276445;27;20411;-43
2021/12/05 02:50:31;;;;;;;16.98;8.90;;;;;;;6.50;66.98;99653.31;5286104;27;20801;-43
2021/12/05 02:53:12;;;;;;;20.63;8.20;;;;;;;6.50;67.06;99653.31;5285137;27;20427;-46
2021/12/05 02:55:48;;;;;;;25.35;8.38;;;;;;;6.51;66.92;99655.81;5279410;27;20767;-43
2021/12/05 02:58:27;;;;;;;19.93;7.73;;;;;;;6.52;66.87;99654.00;5282096;27;20417;-42
2021/12/05 03:01:10;;;;;;;25.48;8.48;;;;;;;6.53;66.88;99658.25;5288764;27;20448;-43
2021/12/05 03:03:43;;;;;;;14.93;8.23;;;;;;;6.49;66.86;99659.56;5285279;27;20476;-42
2021/12/05 03:06:21;;;;;;;25.70;9.20;;;;;;;6.45;66.82;99659.84;5285498;27;20771;-41
2021/12/05 03:08:57;;;;;;;19.25;7.53;;;;;;;6.43;66.75;99664.41;5283879;27;20426;-41
2021/12/05 03:11:31;;;;;;;26.08;9.23;;;;;;;6.46;66.79;99664.13;5280148;27;20410;-44
2021/12/05 03:14:04;;;;;;;22.88;9.23;;;;;;;6.47;66.87;99660.53;5283108;27;20425;-42
2021/12/05 03:16:39;;;;;;;22.23;7.68;;;;;;;6.47;66.85;99664.94;5280103;27;20394;-44
2021/12/05 03:19:12;;;;;;;17.50;8.10;;;;;;;6.41;66.93;99648.03;5286415;27;20417;-41
2021/12/05 03:21:49;;;;;;;26.85;8.75;;;;;;;6.44;66.95;99654.75;5285611;27;20440;-42
2021/12/05 03:24:25;;;;;;;30.25;9.30;;;;;;;6.39;66.92;99652.59;5288608;27;20420;-41
2021/12/05 03:26:59;;;;;;;24.48;8.55;;;;;;;6.41;66.97;99649.81;5286142;27;20425;-41
2021/12/05 03:29:31;;;;;;;20.02;7.45;;;;;;;6.32;66.83;99635.81;5283516;27;20422;-41
2021/12/05 03:32:05;;;;;;;27.70;9.30;;;;;;;6.35;66.97;99655.66;5281386;27;20418;-43
2021/12/05 03:34:37;;;;;;;25.45;9.20;;;;;;;6.36;66.90;99655.53;5280724;27;20450;-43
2021/12/05 03:37:10;;;;;;;28.08;9.00;;;;;;;6.38;67.04;99652.72;5281340;27;20538;-43
2021/12/05 03:39:43;;;;;;;22.35;8.98;;;;;;;6.39;67.01;99657.84;5281085;27;20481;-43
2021/12/05 03:42:17;;;;;;;19.05;8.88;;;;;;;6.33;66.99;99642.72;5286216;27;20415;-49
2021/12/05 03:44:49;;;;;;;25.77;8.77;;;;;;;6.40;67.12;99659.47;5277698;27;20413;-43
2021/12/05 03:47:22;;;;;;;21.88;9.73;;;;;;;6.42;67.06;99667.22;5285278;27;21008;-42
2021/12/05 03:49:54;;;;;;;20.88;8.73;;;;;;;6.46;66.72;99664.13;5281055;27;21897;-44
2021/12/05 03:52:27;;;;;;;23.75;8.38;;;;;;;6.45;67.01;99669.53;5280556;27;20866;-43
2021/12/05 03:54:59;;;;;;;18.90;8.00;;;;;;;6.45;67.09;99667.72;5282487;27;20807;-42
2021/12/05 03:57:33;;;;;;;21.50;8.70;;;;;;;6.48;66.91;99682.34;5279474;27;20436;-44
2021/12/05 04:00:12;;;;;;;18.30;8.00;;;;;;;6.46;67.10;99681.66;5282750;27;20416;-48
2021/12/05 04:02:46;;;;;;;21.33;9.02;;;;;;;6.43;67.12;99680.16;5285085;27;20422;-44
2021/12/05 04:05:20;;;;;;;19.25;9.27;;;;;;;6.46;67.01;99685.09;5282171;27;20426;-42
2021/12/05 04:07:52;;;;;;;20.65;8.75;;;;;;;6.19;66.87;99627.50;5285890;27;20413;-42
2021/12/05 04:10:27;;;;;;;17.83;8.63;;;;;;;6.54;66.91;99681.72;5282503;27;20453;-42
2021/12/05 04:13:00;;;;;;;20.92;8.77;;;;;;;6.57;66.98;99686.66;5283072;27;20442;-43
2021/12/05 04:15:33;;;;;;;18.17;8.85;;;;;;;6.54;67.03;99686.97;5281686;27;20404;-43
2021/12/05 04:18:06;;;;;;;17.37;8.77;;;;;;;6.55;66.98;99690.41;5275812;27;20846;-44
2021/12/05 04:20:39;;;;;;;22.33;9.35;;;;;;;6.55;66.95;99690.41;5285540;27;20843;-42
2021/12/05 04:23:11;;;;;;;17.70;9.15;;;;;;;6.55;67.00;99682.56;5285855;27;20811;-42
2021/12/05 04:25:48;;;;;;;19.08;8.80;;;;;;;6.55;66.88;99698.28;5282155;27;20915;-42
2021/12/05 04:28:24;;;;;;;19.25;9.23;;;;;;;6.52;67.09;99685.47;5284117;27;20423;-41
2021/12/05 04:30:57;;;;;;;16.13;9.10;;;;;;;6.53;67.06;99687.13;5283330;27;20409;-42
2021/12/05 04:33:29;;;;;;;20.30;10.13;;;;;;;6.57;66.83;99691.09;5285647;27;20420;-44
2021/12/05 04:36:02;;;;;;;22.08;9.95;;;;;;;6.59;66.90;99694.38;5284147;28;20399;-44
2021/12/05 04:38:35;;;;;;;18.67;8.85;;;;;;;6.58;66.84;99687.50;5282667;27;20427;-41
2021/12/05 04:41:07;;;;;;;17.10;8.93;;;;;;;6.45;66.98;99688.69;5282028;27;20406;-42
2021/12/05 04:43:41;;;;;;;16.65;7.97;;;;;;;6.44;66.99;99694.94;5282188;28;20487;-43
2021/12/05 04:46:20;;;;;;;23.58;9.85;;;;;;;6.55;67.00;99703.53;5278454;28;21365;-42
2021/12/05 04:48:54;;;;;;;16.40;8.55;;;;;;;6.58;66.81;99695.38;5280034;27;20406;-42
2021/12/05 04:51:31;;;;;;;13.70;7.10;;;;;;;6.55;66.95;99698.28;5287371;27;20390;-41
2021/12/05 04:54:05;;;;;;;14.18;6.80;;;;;;;6.47;66.90;99702.50;5282951;27;20769;-44
2021/12/05 04:56:39;;;;;;;11.50;7.23;;;;;;;6.48;67.13;99700.69;5276059;27;20397;-42
2021/12/05 04:59:14;;;;;;;10.48;6.70;;;;;;;6.39;67.16;99683.25;5281456;27;20485;-42
2021/12/05 05:01:49;;;;;;;8.65;6.18;;;;;;;6.43;67.07;99701.13;5279085;27;20505;-44
2021/12/05 05:04:26;;;;;;;8.05;5.78;;;;;;;6.43;66.99;99706.38;5284550;27;20815;-43
2021/12/05 05:07:02;;;;;;;9.88;6.78;;;;;;;6.42;67.00;99707.38;5284517;27;20829;-43
2021/12/05 05:09:35;;;;;;;13.60;6.38;;;;;;;6.42;66.97;99715.22;5280647;27;20403;-43
2021/12/05 05:12:09;;;;;;;8.87;5.70;;;;;;;6.42;67.07;99725.72;5281772;28;20452;-46
2021/12/05 05:14:43;;;;;;;9.70;6.57;;;;;;;6.45;67.00;99725.41;5284100;27;20422;-42
2021/12/05 05:17:15;;;;;;;10.73;6.65;;;;;;;6.47;66.69;99726.09;5277452;28;20414;-42
2021/12/05 05:19:51;;;;;;;9.85;6.65;;;;;;;6.46;66.85;99732.31;5280686;27;20470;-42
2021/12/05 05:22:34;;;;;;;10.07;6.87;;;;;;;6.45;66.86;99730.66;5283282;28;20497;-42
2021/12/05 05:28:22;;;;;;;8.93;7.57;;;;;;;6.33;67.07;99721.38;5282958;27;20756;-42
2021/12/05 05:45:21;;;;;;;11.27;8.63;;;;;;;6.25;67.03;99760.63;5265949;27;20402;-43
2021/12/05 05:48:13;;;;;;;9.95;8.90;;;;;;;6.24;66.83;99758.97;5268491;27;20450;-43
2021/12/05 05:50:46;;;;;;;13.55;9.02;;;;;;;6.22;66.96;99766.16;5261621;27;20915;-41
2021/12/05 05:53:18;;;;;;;12.82;8.70;;;;;;;6.21;66.78;99769.75;5266886;27;20411;-46
2021/12/05 05:55:52;;;;;;;10.13;8.85;;;;;;;6.17;66.89;99773.66;5264606;28;20406;-42
2021/12/05 05:58:35;;;;;;;13.50;8.43;;;;;;;6.12;66.77;99773.25;5269425;27;20434;-43
2021/12/05 06:01:22;;;;;;;13.35;8.70;;;;;;;6.11;66.77;99774.25;5267734;27;20417;-44
2021/12/05 06:03:56;;;;;;;12.10;9.55;;;;;;;6.14;66.88;99779.19;5266112;28;20967;-43
2021/12/05 06:06:30;;;;;;;14.15;10.23;;;;;;;6.10;66.75;99772.56;5269759;27;20404;-48
2021/12/05 06:09:04;;;;;;;15.68;10.77;;;;;;;6.15;66.81;99801.81;5267334;27;20893;-43
2021/12/05 06:11:37;;;;;;;14.35;10.50;;;;;;;6.11;66.77;99790.78;5264444;27;20404;-43
2021/12/05 06:14:09;;;;;;;11.40;9.23;;;;;;;6.14;66.59;99800.16;5259988;27;20775;-43
2021/12/05 06:16:42;;;;;;;11.82;10.13;;;;;;;6.14;66.88;99803.59;5259563;28;20406;-42
2021/12/05 06:19:15;;;;;;;13.93;10.98;;;;;;;6.16;66.50;99809.53;5265307;27;20854;-42
2021/12/05 06:21:49;;;;;;;12.48;10.73;;;;;;;6.21;66.56;99817.78;5265352;27;20788;-41
2021/12/05 06:24:24;;;;;;;16.15;10.75;;;;;;;6.23;66.39;99821.09;5268546;27;20477;-42
2021/12/05 06:26:58;;;;;;;16.58;10.98;;;;;;;6.24;66.63;99822.72;5265118;27;20399;-42
2021/12/05 06:29:35;;;;;;;13.60;10.55;;;;;;;6.25;66.52;99826.16;5272174;28;20434;-42
2021/12/05 06:38:06;;;;;;;11.15;9.82;;;;;;;6.26;66.63;99827.00;5274463;27;20415;-44
2021/12/05 06:40:58;;;;;;;13.90;10.43;;;;;;;6.24;66.46;99824.53;5282165;27;20415;-43
2021/12/05 06:46:25;;;;;;;14.43;11.38;;;;;;;6.30;66.58;99831.81;5281544;27;20419;-43
2021/12/05 06:48:58;;;;;;;14.07;11.37;;;;;;;6.32;66.54;99835.13;5292091;27;20495;-41
2021/12/05 06:51:32;;;;;;;16.92;11.50;;;;;;;6.34;66.38;99835.78;5286712;27;20525;-42
2021/12/05 06:54:05;;;;;;;13.95;10.70;;;;;;;6.36;66.52;99841.72;5291273;27;20422;-43
2021/12/05 06:56:37;;;;;;;15.13;11.60;;;;;;;6.38;66.51;99844.16;5288314;27;20394;-42
2021/12/05 06:59:09;;;;;;;13.35;11.27;;;;;;;6.40;66.33;99837.81;5286874;27;20407;-42
2021/12/05 07:01:42;;;;;;;15.57;12.40;;;;;;;6.41;66.47;99839.47;5283762;27;20414;-44
2021/12/05 07:04:30;;;;;;;18.60;12.68;;;;;;;6.45;66.33;99850.50;5283904;27;20416;-42
2021/12/05 07:07:06;;;;;;;14.55;11.27;;;;;;;6.40;66.43;99853.53;5283572;27;20538;-42
2021/12/05 07:09:39;;;;;;;13.60;12.18;;;;;;;6.41;66.41;99857.84;5274360;27;20427;-43
2021/12/05 07:12:43;;;;;;;16.48;11.77;;;;;;;6.41;66.55;99863.09;5285908;27;20423;-41
2021/12/05 07:15:16;;;;;;;17.33;13.20;;;;;;;6.37;66.52;99869.56;5281394;27;20479;-43
2021/12/05 07:20:51;;;;;;;19.83;13.55;;;;;;;6.39;66.40;99875.50;5281103;27;20397;-45
2021/12/05 07:23:40;;;;;;;20.25;13.90;;;;;;;6.37;66.53;99880.06;5283100;27;20472;-43
2021/12/05 07:26:17;;;;;;;19.15;14.88;;;;;;;6.14;66.49;99836.88;5280183;27;20415;-47
2021/12/05 07:40:26;;;;;;;16.53;13.30;;;;;;;6.39;66.51;99888.63;5276313;27;20476;-43
2021/12/05 07:43:03;;;;;;;20.02;15.07;;;;;;;6.30;66.62;99879.00;5279900;27;20410;-43
2021/12/05 07:45:40;;;;;;;25.40;15.48;;;;;;;6.37;66.43;99893.19;5274510;27;20478;-43
2021/12/05 07:48:20;;;;;;;19.35;14.55;;;;;;;6.39;66.50;99903.53;5281869;27;20407;-42
2021/12/05 07:51:04;;;;;;;24.42;16.23;;;;;;;6.39;66.48;99903.53;5285076;27;20486;-42
2021/12/05 07:53:48;;;;;;;23.15;15.55;;;;;;;6.32;66.31;99887.56;5279253;27;20951;-43
2021/12/05 07:56:33;;;;;;;26.23;16.75;;;;;;;6.43;66.49;99905.72;5282402;27;20783;-43
2021/12/05 07:59:28;;;;;;;22.67;15.23;;;;;;;6.41;66.36;99898.94;5262919;27;20471;-45
2021/12/05 08:16:31;;;;;;;21.65;15.65;;;;;;;6.57;66.39;99929.81;5286460;27;20406;-44
2021/12/05 08:19:04;;;;;;;22.10;15.40;;;;;;;6.50;66.44;99911.19;5283173;27;20417;-43
2021/12/05 08:21:36;;;;;;;17.58;14.82;;;;;;;6.59;66.35;99930.47;5279581;27;20410;-45
2021/12/05 08:24:09;;;;;;;20.40;15.40;;;;;;;6.61;66.41;99932.00;5288471;27;20440;-43
2021/12/05 08:26:43;;;;;;;20.47;15.23;;;;;;;6.62;66.32;99945.94;5292568;27;20498;-41
2021/12/05 08:29:22;;;;;;;25.90;14.73;;;;;;;6.65;66.33;99953.50;5285874;27;20890;-42
2021/12/05 08:32:11;;;;;;;22.42;15.32;;;;;;;6.50;66.27;99936.59;5285546;27;20415;-43
2021/12/05 08:35:07;;;;;;;20.70;13.95;;;;;;;6.67;66.35;99962.88;5272910;27;20431;-44
2021/12/05 10:02:10;;;;;;;16.20;14.05;;;;;;;7.45;66.61;100098.16;5158925;28;20421;-44
2021/12/05 10:07:56;;;;;;;19.05;13.32;;;;;;;7.51;66.63;100108.09;5147265;28;20732;-42
2021/12/05 10:10:37;;;;;;;16.90;12.05;;;;;;;7.55;66.55;100101.53;5152567;28;20422;-44
2021/12/05 10:13:17;;;;;;;17.10;13.48;;;;;;;7.58;66.44;100111.75;5158259;28;20418;-44
2021/12/05 10:16:11;;;;;;;16.23;12.65;;;;;;;7.54;66.45;100107.78;5153783;28;20436;-45
2021/12/05 10:36:14;;;;;;;16.17;12.82;;;;;;;7.59;66.40;100126.56;5151274;28;20422;-44
2021/12/05 10:38:54;;;;;;;16.48;12.88;;;;;;;7.61;66.40;100121.97;5168351;28;20534;-43
2021/12/05 10:42:00;;;;;;;17.52;13.43;;;;;;;7.62;66.63;100121.03;5183517;28;20453;-44
2021/12/05 10:44:45;;;;;;;18.52;14.65;;;;;;;7.68;66.50;100128.31;5177627;28;20423;-42
2021/12/05 10:47:38;;;;;;;15.73;12.18;;;;;;;7.66;66.38;100125.00;5178595;28;20416;-46
2021/12/05 10:50:30;;;;;;;21.80;14.80;;;;;;;7.67;66.57;100134.53;5179935;28;20763;-43
2021/12/05 10:53:39;;;;;;;15.65;12.27;;;;;;;7.73;66.64;100144.44;5178370;28;20411;-45
2021/12/05 10:56:21;;;;;;;18.67;14.20;;;;;;;7.79;66.50;100135.97;5179972;28;20417;-43
2021/12/05 10:58:59;;;;;;;15.93;13.32;;;;;;;7.87;66.26;100137.88;5180085;28;20502;-43
2021/12/05 11:01:38;;;;;;;17.40;13.25;;;;;;;8.02;66.27;100152.16;5186744;28;20895;-44
2021/12/05 11:04:13;;;;;;;17.07;13.63;;;;;;;7.78;66.00;100097.53;5175464;28;20538;-43
2021/12/05 11:06:50;;;;;;;16.63;12.80;;;;;;;8.09;66.00;100155.00;5172816;28;20515;-45
2021/12/05 11:09:26;;;;;;;18.65;14.32;;;;;;;8.13;66.05;100164.22;5176136;28;20412;-43
2021/12/05 11:12:08;;;;;;;20.40;15.35;;;;;;;8.08;65.93;100153.31;5177212;28;20495;-42
2021/12/05 11:14:45;;;;;;;21.65;15.20;;;;;;;8.15;66.12;100172.81;5171766;28;20515;-43
2021/12/05 11:17:19;;;;;;;21.57;15.47;;;;;;;8.16;66.03;100174.44;5177505;28;20459;-44
2021/12/05 11:19:53;;;;;;;19.35;15.20;;;;;;;8.15;65.89;100178.06;5181909;28;20785;-42
2021/12/05 11:22:29;;;;;;;22.75;16.33;;;;;;;8.13;65.60;100180.00;5179846;28;23595;-44
2021/12/05 11:25:05;;;;;;;20.33;16.15;;;;;;;8.13;66.09;100179.19;5182084;28;20413;-42
2021/12/05 11:27:39;;;;;;;19.33;15.27;;;;;;;8.09;65.93;100181.28;5177143;28;20417;-45
2021/12/05 11:30:17;;;;;;;21.55;17.13;;;;;;;8.06;66.04;100189.50;5174071;28;20416;-43
2021/12/05 11:32:53;;;;;;;27.58;19.13;;;;;;;8.04;65.98;100197.50;5182932;28;20431;-42
2021/12/05 11:35:32;;;;;;;24.50;18.88;;;;;;;8.05;65.96;100199.19;5178446;28;20528;-42
2021/12/05 11:38:17;;;;;;;23.90;17.70;;;;;;;8.02;65.87;100198.63;5190122;28;20421;-42
2021/12/05 11:40:58;;;;;;;23.80;16.98;;;;;;;7.90;65.93;100194.56;5176866;28;20541;-43
2021/12/05 11:43:34;;;;;;;21.65;17.92;;;;;;;8.00;65.90;100208.50;5173376;28;20464;-43
2021/12/05 11:46:11;;;;;;;22.30;18.15;;;;;;;7.98;65.90;100207.78;5172519;28;20765;-40
2021/12/05 11:48:48;;;;;;;20.33;17.02;;;;;;;7.91;65.95;100196.22;5175272;28;20428;-45
2021/12/05 11:51:31;;;;;;;23.83;18.85;;;;;;;8.00;65.90;100211.13;5182373;28;20782;-43
2021/12/05 11:54:08;;;;;;;22.23;18.02;;;;;;;8.03;65.87;100221.34;5172781;28;20487;-44
2021/12/05 11:56:48;;;;;;;22.95;17.80;;;;;;;8.01;65.87;100215.38;5176130;28;20412;-43
2021/12/05 11:59:26;;;;;;;21.88;18.15;;;;;;;8.04;65.81;100226.44;5185427;28;20578;-44
2021/12/05 12:02:07;;;;;;;22.50;19.00;;;;;;;8.04;65.72;100230.88;5179772;28;20490;-42
2021/12/05 12:04:47;;;;;;;25.23;19.73;;;;;;;8.03;65.71;100222.16;5166012;28;20851;-44
2021/12/05 12:07:30;;;;;;;24.48;19.55;;;;;;;8.02;65.67;100231.03;5169829;28;20415;-43
2021/12/05 12:10:10;;;;;;;21.45;17.67;;;;;;;8.01;65.71;100229.38;5179008;28;20879;-43
2021/12/05 12:12:46;;;;;;;24.70;19.50;;;;;;;8.00;65.83;100232.16;5174154;28;20423;-43
2021/12/05 12:15:22;;;;;;;28.83;18.77;;;;;;;7.98;65.85;100240.19;5178332;28;20427;-42
2021/12/05 12:18:06;;;;;;;23.88;19.85;;;;;;;8.04;65.67;100244.84;5174077;28;20941;-42
2021/12/05 12:20:44;;;;;;;26.63;20.37;;;;;;;8.05;65.66;100249.16;5176783;28;20441;-42
2021/12/05 12:23:18;;;;;;;24.83;19.23;;;;;;;8.12;65.61;100252.00;5183719;28;20422;-43
2021/12/05 12:25:56;;;;;;;24.60;18.50;;;;;;;8.11;65.51;100252.97;5174270;28;20416;-44
2021/12/05 12:28:30;;;;;;;21.25;18.00;;;;;;;8.07;65.53;100259.50;5177661;28;20503;-43
2021/12/05 12:31:07;;;;;;;24.02;20.38;;;;;;;7.86;65.51;100223.78;5181348;28;20419;-44
2021/12/05 12:33:48;;;;;;;26.88;20.48;;;;;;;8.16;65.39;100268.31;5170646;28;20413;-43
2021/12/05 12:36:37;;;;;;;27.38;20.52;;;;;;;8.15;65.46;100267.50;5180853;28;20421;-44
2021/12/05 12:39:32;;;;;;;27.02;20.42;;;;;;;8.17;65.49;100280.47;5169029;28;20445;-42
2021/12/05 12:42:25;;;;;;;25.08;20.85;;;;;;;8.22;65.42;100286.97;5168482;28;20444;-43
2021/12/05 12:45:10;;;;;;;25.42;20.45;;;;;;;8.24;65.36;100287.66;5178517;28;20877;-42
2021/12/05 12:47:47;;;;;;;25.42;20.80;;;;;;;8.23;65.27;100279.91;5181270;28;20895;-42
2021/12/05 12:50:38;;;;;;;26.25;20.30;;;;;;;8.26;65.19;100279.59;5181919;28;20908;-42
2021/12/05 12:54:06;;;;;;;28.52;20.48;;;;;;;8.26;65.28;100290.94;5166986;28;20413;-43
2021/12/05 12:56:40;;;;;;;26.33;20.20;;;;;;;8.20;65.38;100281.00;5165413;28;20770;-41
2021/12/05 12:59:17;;;;;;;25.03;20.30;;;;;;;8.18;65.50;100300.56;5179325;28;20423;-42
2021/12/05 13:02:15;;;;;;;25.33;20.13;;;;;;;8.18;65.31;100293.50;5183046;28;20484;-44
2021/12/05 13:10:38;;;;;;;25.50;19.95;;;;;;;8.19;65.42;100300.41;5171985;28;20754;-43
2021/12/05 13:13:19;;;;;;;23.80;20.02;;;;;;;8.17;65.47;100304.16;5180294;28;20447;-43
2021/12/05 13:15:57;;;;;;;25.92;20.45;;;;;;;8.16;65.36;100313.84;5170465;28;20434;-43
2021/12/05 13:18:35;;;;;;;21.17;18.73;;;;;;;8.17;65.47;100312.88;5183163;28;20427;-43
2021/12/05 13:21:10;;;;;;;23.05;20.42;;;;;;;8.22;65.38;100320.34;5174851;28;20411;-48
2021/12/05 13:23:50;;;;;;;21.70;18.20;;;;;;;8.20;65.16;100323.09;5175194;28;20422;-42
2021/12/05 13:26:30;;;;;;;22.98;18.73;;;;;;;8.18;65.31;100330.31;5182459;28;20413;-43
2021/12/05 13:29:15;;;;;;;23.90;18.97;;;;;;;8.14;65.36;100338.66;5180727;28;20491;-44
2021/12/05 13:31:53;;;;;;;24.80;19.40;;;;;;;8.08;65.33;100347.94;5161020;28;20554;-47
2021/12/05 13:34:35;;;;;;;26.35;20.23;;;;;;;8.08;65.44;100350.56;5182351;28;20666;-43
2021/12/05 13:37:44;;;;;;;27.40;20.83;;;;;;;8.05;65.23;100353.50;5162177;28;20887;-49
2021/12/05 13:40:22;;;;;;;29.00;22.27;;;;;;;7.95;65.16;100342.19;5178644;28;20407;-47
2021/12/05 13:43:01;;;;;;;28.23;22.08;;;;;;;8.07;65.12;100355.00;5178028;28;20430;-42
2021/12/05 13:45:42;;;;;;;25.23;20.05;;;;;;;8.02;65.18;100364.28;5174388;28;20909;-42
2021/12/05 13:48:26;;;;;;;25.57;20.73;;;;;;;7.97;65.16;100369.19;5174588;28;20568;-41
2021/12/05 13:51:02;;;;;;;30.63;21.50;;;;;;;7.94;65.23;100372.09;5185499;28;20413;-42
2021/12/05 13:53:46;;;;;;;26.30;21.63;;;;;;;7.90;65.21;100383.84;5187672;28;20889;-42
2021/12/05 13:56:26;;;;;;;28.02;21.10;;;;;;;7.86;65.36;100394.66;5182126;28;20409;-43
2021/12/05 13:59:06;;;;;;;23.80;19.40;;;;;;;7.77;65.25;100398.19;5178989;28;20397;-42
2021/12/05 14:01:49;;;;;;;26.30;20.90;;;;;;;7.62;65.50;100400.41;5175576;28;20409;-43
2021/12/05 14:04:28;;;;;;;24.67;19.40;;;;;;;7.60;65.57;100414.66;5184192;28;20457;-43
2021/12/05 14:07:02;;;;;;;21.30;16.60;;;;;;;7.56;65.49;100415.91;5179310;28;20430;-42
2021/12/05 14:09:38;;;;;;;22.08;16.80;;;;;;;7.55;65.47;100425.56;5188150;28;20430;-41
2021/12/05 14:12:17;;;;;;;21.33;18.57;;;;;;;7.59;65.41;100436.66;5178152;28;20507;-42
2021/12/05 14:14:53;;;;;;;19.15;14.88;;;;;;;7.61;65.35;100442.59;5174484;28;20427;-42
2021/12/05 14:17:28;;;;;;;19.15;15.98;;;;;;;7.60;65.37;100440.94;5184245;28;20435;-42
2021/12/05 14:20:05;;;;;;;20.93;15.50;;;;;;;7.50;65.37;100442.75;5178925;28;20420;-42
2021/12/05 14:22:40;;;;;;;19.35;16.00;;;;;;;7.56;65.43;100455.34;5178317;28;20417;-46
2021/12/05 14:25:15;;;;;;;22.33;16.42;;;;;;;7.51;65.38;100452.28;5179858;28;20418;-43
2021/12/05 14:27:53;;;;;;;22.17;17.50;;;;;;;7.48;65.44;100468.34;5178473;28;20917;-41
2021/12/05 14:30:30;;;;;;;23.48;17.10;;;;;;;7.45;65.51;100468.59;5173589;28;20445;-48
2021/12/05 14:33:03;;;;;;;23.50;17.65;;;;;;;7.44;65.35;100473.03;5185957;28;20415;-45
2021/12/05 14:35:40;;;;;;;23.50;18.30;;;;;;;7.20;65.49;100447.16;5171196;28;20533;-43
2021/12/05 14:38:13;;;;;;;23.25;18.15;;;;;;;7.31;65.99;100475.13;5174819;28;20438;-42
2021/12/05 14:40:45;;;;;;;23.23;18.10;;;;;;;7.29;65.52;100480.50;5179763;28;20431;-43
2021/12/05 14:43:21;;;;;;;27.80;20.30;;;;;;;7.24;65.29;100477.44;5185810;28;20764;-43
2021/12/05 14:45:53;;;;;;;28.73;20.23;;;;;;;7.26;65.73;100486.03;5178659;28;20801;-46
2021/12/05 14:48:26;;;;;;;26.67;19.83;;;;;;;7.26;65.44;100496.53;5188047;28;20439;-43
2021/12/05 14:51:00;;;;;;;30.33;19.95;;;;;;;7.32;65.59;100511.75;5181115;28;20886;-43
2021/12/05 14:53:40;;;;;;;30.42;21.17;;;;;;;7.36;65.47;100517.56;5174303;28;20491;-42
2021/12/05 14:56:12;;;;;;;27.63;20.73;;;;;;;7.31;65.55;100515.34;5172968;28;20829;-42
2021/12/05 14:58:46;;;;;;;28.83;21.20;;;;;;;7.28;65.48;100520.03;5181722;28;20543;-43
2021/12/05 15:01:20;;;;;;;25.67;20.37;;;;;;;7.21;65.66;100530.25;5166760;28;20939;-42
2021/12/05 15:04:02;;;;;;;24.23;18.73;;;;;;;7.16;65.80;100543.78;5181630;28;20425;-43
2021/12/05 15:06:39;;;;;;;27.38;21.85;;;;;;;7.14;65.66;100547.50;5176556;28;20516;-43
2021/12/05 15:09:25;;;;;;;27.13;20.60;;;;;;;7.12;65.64;100552.06;5177885;28;20419;-56
2021/12/05 15:12:03;;;;;;;26.20;20.75;;;;;;;7.06;66.02;100557.84;5180618;28;20835;-45
2021/12/05 15:14:42;;;;;;;31.47;22.40;;;;;;;7.03;65.79;100560.75;5178634;28;20435;-43
2021/12/05 15:17:18;;;;;;;31.23;22.52;;;;;;;6.99;65.88;100569.84;5156034;28;20485;-41
2021/12/05 15:19:54;;;;;;;31.73;22.90;;;;;;;6.98;66.13;100576.91;5166749;28;20524;-44
2021/12/05 15:22:27;;;;;;;27.50;20.38;;;;;;;6.96;66.06;100578.00;5179096;28;20412;-44
2021/12/05 15:25:04;;;;;;;26.33;20.73;;;;;;;6.92;65.97;100582.69;5187170;28;20491;-42
2021/12/05 15:27:38;;;;;;;25.77;19.40;;;;;;;6.95;66.03;100586.84;5175420;28;20417;-42
2021/12/05 15:30:16;;;;;;;26.63;20.00;;;;;;;6.92;65.88;100591.38;5180669;28;20611;-46
2021/12/05 15:32:53;;;;;;;27.17;20.33;;;;;;;6.92;65.97;100601.06;5175540;28;20413;-42
2021/12/05 15:35:27;;;;;;;29.70;19.77;;;;;;;6.90;66.16;100603.81;5183432;28;20419;-43
2021/12/05 15:38:03;;;;;;;26.23;18.75;;;;;;;6.90;66.00;100611.69;5176440;28;20536;-46
2021/12/05 15:40:41;;;;;;;25.50;18.17;;;;;;;6.88;66.15;100612.81;5172367;28;20596;-43
2021/12/05 15:43:17;;;;;;;23.95;17.35;;;;;;;6.87;66.24;100619.81;5181453;28;20413;-45
2021/12/05 15:45:53;;;;;;;23.98;18.00;;;;;;;6.84;66.30;100622.72;5183146;28;20499;-43
2021/12/05 15:48:29;;;;;;;22.50;17.35;;;;;;;6.80;66.31;100626.56;5183079;28;20415;-43
2021/12/05 15:51:06;;;;;;;22.80;17.02;;;;;;;6.83;66.36;100628.09;5176785;28;20423;-46
2021/12/05 15:53:40;;;;;;;23.98;17.13;;;;;;;6.83;66.30;100625.47;5181622;28;20502;-43
2021/12/05 15:56:16;;;;;;;27.05;18.75;;;;;;;6.82;66.25;100643.03;5172513;28;20423;-46
2021/12/05 15:58:59;;;;;;;24.80;17.20;;;;;;;6.81;66.34;100648.38;5181916;28;20431;-44
2021/12/05 16:01:33;;;;;;;25.15;17.95;;;;;;;6.72;66.20;100665.78;5175263;28;20415;-44
2021/12/05 16:04:18;;;;;;;25.67;20.08;;;;;;;6.79;66.44;100666.91;5180963;28;20441;-42
2021/12/05 16:06:52;;;;;;;25.53;18.23;;;;;;;6.81;66.32;100672.84;5177940;28;20423;-44
2021/12/05 16:09:26;;;;;;;24.83;17.77;;;;;;;6.76;66.52;100677.66;5178699;28;20427;-45
2021/12/05 16:12:10;;;;;;;27.65;19.70;;;;;;;6.75;66.40;100686.50;5172128;28;20753;-43
2021/12/05 16:14:45;;;;;;;28.73;19.60;;;;;;;6.81;66.31;100693.84;5169723;28;20968;-43
2021/12/05 16:17:23;;;;;;;23.33;17.83;;;;;;;6.83;66.38;100705.06;5180624;28;20903;-42
2021/12/05 16:20:13;;;;;;;27.85;20.65;;;;;;;6.83;66.46;100715.56;5169576;28;20843;-43